Terminal Aerodrome Forecast
Issued by NWS Caribou, ME

Home | Current Version | Previous Version | Text Only | Print | Product List | Glossary On
Versions: 1 2 3 4 5 6 7 8 9 10 11 12 13 14
000
FTUS41 KCAR 222337
TAFBGR
TAF
KBGR 222337Z 2300/2324 18009KT P6SM OVC007
     FM230200 19009KT 3SM -RA OVC007
     FM230500 20010KT P6SM OVC010
     FM231000 21009KT P6SM VCSH OVC015
     FM231200 21008KT P6SM OVC050=

USA.gov is the U.S. government's official web portal to all federal, state and local government web resources and services.